CDT,Max TemperatureF,Mean TemperatureF,Min TemperatureF,Max Dew PointF,MeanDew PointF,Min DewpointF,Max Humidity, Mean Humidity, Min Humidity, Max Sea Level PressureIn, Mean Sea Level PressureIn, Min Sea Level PressureIn, Max VisibilityMiles, Mean VisibilityMiles, Min VisibilityMiles, Max Wind SpeedMPH, Mean Wind SpeedMPH, Max Gust SpeedMPH,PrecipitationIn, CloudCover, Events, WindDirDegrees
2013-9-1,101,84,68,57,52,46,63,35,16,29.98,29.93,29.88,10,10,10,17,9,22,0.00,0,,98
2013-9-2,92,80,68,64,56,48,71,47,29,30.10,30.02,29.96,10,10,7,24,4,41,0.00,0,Rain-Thunderstorm,18
2013-9-3,95,79,63,63,57,49,91,54,21,30.13,30.05,29.97,10,10,2,13,4,18,0.00,0,,70
2013-9-4,97,81,65,58,55,51,68,43,22,30.16,30.09,30.02,10,10,10,15,5,22,0.00,0,,85
2013-9-5,95,80,64,61,57,53,75,47,25,30.18,30.11,30.04,10,10,10,18,7,29,0.00,0,,93
2013-9-6,95,81,67,62,58,54,79,46,26,30.17,30.09,30.00,10,10,10,20,8,25,0.00,0,,106
2013-9-7,95,80,64,59,55,50,71,44,24,30.11,30.04,29.95,10,10,10,17,7,25,0.00,0,,113
2013-9-8,94,80,65,64,56,51,66,46,26,30.03,29.97,29.86,10,10,10,21,7,25,0.00,0,,101
2013-9-9,90,79,68,65,62,59,83,62,36,29.98,29.94,29.89,10,10,2,23,12,43,0.00,1,Rain-Thunderstorm,119
2013-9-10,90,79,68,64,62,58,84,59,35,30.04,29.98,29.92,10,10,10,21,11,26,0.00,0,,109
2013-9-11,89,80,72,69,64,61,77,60,40,30.10,30.04,29.98,10,10,5,24,17,29,0.01,1,Rain,111
2013-9-12,89,80,70,64,60,54,77,54,32,30.11,30.04,29.98,10,10,10,23,15,28,0.00,0,,104
2013-9-13,91,78,64,60,54,51,73,47,25,30.04,29.98,29.88,10,10,10,22,9,29,0.00,0,,97
2013-9-14,92,77,62,58,50,43,69,42,21,30.00,29.94,29.87,10,10,10,20,9,32,0.00,0,,113
2013-9-15,93,79,65,59,54,46,63,42,25,30.05,29.98,29.93,10,10,10,21,9,26,0.00,0,,108
2013-9-16,90,78,67,64,59,54,78,54,32,30.15,30.07,30.00,10,10,10,18,10,23,0.00,0,Thunderstorm,98
2013-9-17,85,76,68,65,62,58,82,63,40,30.12,30.07,29.98,10,10,10,21,12,26,0.00,0,,106
2013-9-18,91,80,69,64,62,58,78,58,34,30.05,29.97,29.87,10,10,10,20,13,26,0.00,0,,121
2013-9-19,80,74,68,67,65,63,91,75,57,29.97,29.94,29.91,10,10,7,16,11,20,0.01,3,Rain,106
2013-9-20,75,68,61,68,64,60,95,87,69,30.09,30.00,29.94,10,9,3,21,7,30,0.27,6,Rain,33
2013-9-21,78,68,59,61,58,56,96,75,46,30.14,30.06,29.96,10,10,4,7,2,,0.00,4,,80
2013-9-22,87,68,50,59,49,38,97,58,18,29.99,29.88,29.77,10,9,0,14,3,24,0.00,1,Fog,121
2013-9-23,93,75,58,56,46,35,79,42,15,29.93,29.82,29.77,10,10,10,20,8,30,0.00,0,,302
2013-9-24,88,70,52,45,42,36,72,40,16,30.10,30.01,29.94,10,10,7,13,6,,0.00,0,,288
2013-9-25,95,72,48,50,43,40,83,43,16,29.98,29.88,29.75,10,10,10,14,3,18,0.00,0,,151
2013-9-26,98,78,59,59,52,47,77,43,18,29.86,29.79,29.71,10,10,10,24,7,32,0.00,0,,91
2013-9-27,92,78,65,68,60,54,83,57,28,29.86,29.79,29.72,10,10,5,18,7,21,0.09,2,Rain-Thunderstorm,85
2013-9-28,79,70,61,68,48,33,91,48,25,30.18,30.05,29.82,10,10,10,25,8,33,0.09,2,Thunderstorm,354
2013-9-29,83,66,48,51,46,42,91,54,24,30.20,30.11,29.98,10,10,10,9,2,,0.00,0,,112
2013-9-30,94,69,44,43,38,34,75,38,12,30.02,29.91,29.81,10,10,10,16,5,25,0.00,0,,250